sensor_id;sensor_type;location;lat;lon;timestamp;temperature;humidity
76785;SHT30;66893;44.316;0.092;2023-02-02T00:01:36;14.51;49.72
76785;SHT30;66893;44.316;0.092;2023-02-02T00:04:02;14.51;49.72
76785;SHT30;66893;44.316;0.092;2023-02-02T00:06:29;14.49;49.70
76785;SHT30;66893;44.316;0.092;2023-02-02T00:08:56;14.49;49.75
76785;SHT30;66893;44.316;0.092;2023-02-02T00:11:22;14.49;49.72
76785;SHT30;66893;44.316;0.092;2023-02-02T00:13:48;14.49;49.76
76785;SHT30;66893;44.316;0.092;2023-02-02T00:19:00;14.48;49.75
76785;SHT30;66893;44.316;0.092;2023-02-02T00:21:26;14.49;49.79
76785;SHT30;66893;44.316;0.092;2023-02-02T00:23:52;14.49;49.77
76785;SHT30;66893;44.316;0.092;2023-02-02T00:26:18;14.46;49.76
76785;SHT30;66893;44.316;0.092;2023-02-02T00:28:44;14.48;49.80
76785;SHT30;66893;44.316;0.092;2023-02-02T00:31:10;14.44;49.82
76785;SHT30;66893;44.316;0.092;2023-02-02T00:33:36;14.42;49.81
76785;SHT30;66893;44.316;0.092;2023-02-02T00:36:01;14.42;49.79
76785;SHT30;66893;44.316;0.092;2023-02-02T00:38:26;14.42;49.81
76785;SHT30;66893;44.316;0.092;2023-02-02T00:40:52;14.42;49.82
76785;SHT30;66893;44.316;0.092;2023-02-02T00:43:17;14.42;49.86
76785;SHT30;66893;44.316;0.092;2023-02-02T00:45:43;14.39;49.87
76785;SHT30;66893;44.316;0.092;2023-02-02T00:48:09;14.39;49.86
76785;SHT30;66893;44.316;0.092;2023-02-02T00:50:37;14.38;49.89
76785;SHT30;66893;44.316;0.092;2023-02-02T00:53:02;14.38;49.89
76785;SHT30;66893;44.316;0.092;2023-02-02T00:55:28;14.38;49.92
76785;SHT30;66893;44.316;0.092;2023-02-02T00:57:54;14.38;49.90
76785;SHT30;66893;44.316;0.092;2023-02-02T01:00:21;14.38;49.93
76785;SHT30;66893;44.316;0.092;2023-02-02T01:02:51;14.35;49.94
76785;SHT30;66893;44.316;0.092;2023-02-02T01:05:18;14.35;49.94
76785;SHT30;66893;44.316;0.092;2023-02-02T01:07:44;14.37;49.91
76785;SHT30;66893;44.316;0.092;2023-02-02T01:10:13;14.35;49.91
76785;SHT30;66893;44.316;0.092;2023-02-02T01:12:39;14.34;49.94
76785;SHT30;66893;44.316;0.092;2023-02-02T01:15:05;14.32;49.95
76785;SHT30;66893;44.316;0.092;2023-02-02T01:17:31;14.34;49.96
76785;SHT30;66893;44.316;0.092;2023-02-02T01:19:57;14.34;49.98
76785;SHT30;66893;44.316;0.092;2023-02-02T01:22:22;14.32;49.96
76785;SHT30;66893;44.316;0.092;2023-02-02T01:24:48;14.29;49.99
76785;SHT30;66893;44.316;0.092;2023-02-02T01:27:13;14.32;50.00
76785;SHT30;66893;44.316;0.092;2023-02-02T01:29:39;14.31;49.97
76785;SHT30;66893;44.316;0.092;2023-02-02T01:32:05;14.28;49.98
76785;SHT30;66893;44.316;0.092;2023-02-02T01:34:30;14.29;50.02
76785;SHT30;66893;44.316;0.092;2023-02-02T01:36:55;14.29;50.02
76785;SHT30;66893;44.316;0.092;2023-02-02T01:39:21;14.27;50.03
76785;SHT30;66893;44.316;0.092;2023-02-02T01:41:47;14.27;50.03
76785;SHT30;66893;44.316;0.092;2023-02-02T01:47:15;14.24;50.05
76785;SHT30;66893;44.316;0.092;2023-02-02T01:49:41;14.20;50.03
76785;SHT30;66893;44.316;0.092;2023-02-02T01:52:08;14.20;50.04
76785;SHT30;66893;44.316;0.092;2023-02-02T01:54:45;14.20;50.01
76785;SHT30;66893;44.316;0.092;2023-02-02T01:57:13;14.18;50.01
76785;SHT30;66893;44.316;0.092;2023-02-02T01:59:40;14.18;50.00
76785;SHT30;66893;44.316;0.092;2023-02-02T02:02:07;14.17;49.95
76785;SHT30;66893;44.316;0.092;2023-02-02T02:04:33;14.13;49.96
76785;SHT30;66893;44.316;0.092;2023-02-02T02:07:00;14.14;49.96
76785;SHT30;66893;44.316;0.092;2023-02-02T02:09:27;14.10;49.95
76785;SHT30;66893;44.316;0.092;2023-02-02T02:11:53;14.09;49.92
76785;SHT30;66893;44.316;0.092;2023-02-02T02:14:19;14.06;49.91
76785;SHT30;66893;44.316;0.092;2023-02-02T02:19:58;14.03;49.85
76785;SHT30;66893;44.316;0.092;2023-02-02T02:29:22;13.97;49.83
76785;SHT30;66893;44.316;0.092;2023-02-02T02:32:00;13.93;49.80
76785;SHT30;66893;44.316;0.092;2023-02-02T02:35:11;13.91;49.81
76785;SHT30;66893;44.316;0.092;2023-02-02T02:42:41;13.84;49.72
76785;SHT30;66893;44.316;0.092;2023-02-02T02:45:09;13.83;49.69
76785;SHT30;66893;44.316;0.092;2023-02-02T02:47:35;13.83;49.61
76785;SHT30;66893;44.316;0.092;2023-02-02T02:50:03;13.79;49.60
76785;SHT30;66893;44.316;0.092;2023-02-02T02:52:30;13.79;49.54
76785;SHT30;66893;44.316;0.092;2023-02-02T02:54:57;13.77;49.54
76785;SHT30;66893;44.316;0.092;2023-02-02T02:57:36;13.74;49.50
76785;SHT30;66893;44.316;0.092;2023-02-02T03:08:30;13.65;49.39
76785;SHT30;66893;44.316;0.092;2023-02-02T03:10:58;13.66;49.32
76785;SHT30;66893;44.316;0.092;2023-02-02T03:13:26;13.62;49.24
76785;SHT30;66893;44.316;0.092;2023-02-02T03:15:52;13.61;49.24
76785;SHT30;66893;44.316;0.092;2023-02-02T03:18:21;13.59;49.25
76785;SHT30;66893;44.316;0.092;2023-02-02T03:20:47;13.55;49.16
76785;SHT30;66893;44.316;0.092;2023-02-02T03:23:12;13.54;49.16
76785;SHT30;66893;44.316;0.092;2023-02-02T03:25:38;13.54;49.08
76785;SHT30;66893;44.316;0.092;2023-02-02T03:28:04;13.51;49.11
76785;SHT30;66893;44.316;0.092;2023-02-02T03:30:31;13.51;49.02
76785;SHT30;66893;44.316;0.092;2023-02-02T03:32:57;13.49;49.04
76785;SHT30;66893;44.316;0.092;2023-02-02T03:35:22;13.46;48.99
76785;SHT30;66893;44.316;0.092;2023-02-02T03:37:50;13.46;48.92
76785;SHT30;66893;44.316;0.092;2023-02-02T03:40:15;13.42;48.89
76785;SHT30;66893;44.316;0.092;2023-02-02T03:42:41;13.41;48.85
76785;SHT30;66893;44.316;0.092;2023-02-02T03:45:07;13.38;48.85
76785;SHT30;66893;44.316;0.092;2023-02-02T03:47:32;13.38;48.82
76785;SHT30;66893;44.316;0.092;2023-02-02T03:49:58;13.35;48.79
76785;SHT30;66893;44.316;0.092;2023-02-02T03:52:24;13.34;48.74
76785;SHT30;66893;44.316;0.092;2023-02-02T03:54:50;13.34;48.78
76785;SHT30;66893;44.316;0.092;2023-02-02T03:57:15;13.29;48.71
76785;SHT30;66893;44.316;0.092;2023-02-02T03:59:41;13.29;48.68
76785;SHT30;66893;44.316;0.092;2023-02-02T04:02:06;13.29;48.68
76785;SHT30;66893;44.316;0.092;2023-02-02T04:04:32;13.27;48.67
76785;SHT30;66893;44.316;0.092;2023-02-02T04:06:58;13.25;48.62
76785;SHT30;66893;44.316;0.092;2023-02-02T04:09:24;13.22;48.65
76785;SHT30;66893;44.316;0.092;2023-02-02T04:11:49;13.25;48.65
76785;SHT30;66893;44.316;0.092;2023-02-02T04:14:15;13.22;48.64
76785;SHT30;66893;44.316;0.092;2023-02-02T04:16:40;13.21;48.66
76785;SHT30;66893;44.316;0.092;2023-02-02T04:19:06;13.21;48.65
76785;SHT30;66893;44.316;0.092;2023-02-02T04:21:32;13.19;48.62
76785;SHT30;66893;44.316;0.092;2023-02-02T04:23:58;13.18;48.66
76785;SHT30;66893;44.316;0.092;2023-02-02T04:26:24;13.18;48.65
76785;SHT30;66893;44.316;0.092;2023-02-02T04:28:51;13.18;48.61
76785;SHT30;66893;44.316;0.092;2023-02-02T04:31:17;13.18;48.63
76785;SHT30;66893;44.316;0.092;2023-02-02T04:33:42;13.17;48.64
76785;SHT30;66893;44.316;0.092;2023-02-02T04:36:08;13.17;48.62
76785;SHT30;66893;44.316;0.092;2023-02-02T04:38:33;13.15;48.63
76785;SHT30;66893;44.316;0.092;2023-02-02T04:41:06;13.15;48.62
76785;SHT30;66893;44.316;0.092;2023-02-02T04:43:33;13.14;48.67
76785;SHT30;66893;44.316;0.092;2023-02-02T04:45:58;13.14;48.65
76785;SHT30;66893;44.316;0.092;2023-02-02T04:48:24;13.14;48.66
76785;SHT30;66893;44.316;0.092;2023-02-02T04:50:49;13.14;48.65
76785;SHT30;66893;44.316;0.092;2023-02-02T04:53:15;13.11;48.68
76785;SHT30;66893;44.316;0.092;2023-02-02T04:55:40;13.10;48.68
76785;SHT30;66893;44.316;0.092;2023-02-02T04:58:05;13.11;48.66
76785;SHT30;66893;44.316;0.092;2023-02-02T05:00:31;13.11;48.70
76785;SHT30;66893;44.316;0.092;2023-02-02T05:02:56;13.10;48.70
76785;SHT30;66893;44.316;0.092;2023-02-02T05:05:22;13.07;48.74
76785;SHT30;66893;44.316;0.092;2023-02-02T05:07:47;13.10;48.78
76785;SHT30;66893;44.316;0.092;2023-02-02T05:10:13;13.10;48.78
76785;SHT30;66893;44.316;0.092;2023-02-02T05:12:38;13.10;48.73
76785;SHT30;66893;44.316;0.092;2023-02-02T05:15:04;13.10;48.76
76785;SHT30;66893;44.316;0.092;2023-02-02T05:17:30;13.10;48.80
76785;SHT30;66893;44.316;0.092;2023-02-02T05:19:56;13.10;48.80
76785;SHT30;66893;44.316;0.092;2023-02-02T05:22:21;13.07;48.77
76785;SHT30;66893;44.316;0.092;2023-02-02T05:24:47;13.07;48.83
76785;SHT30;66893;44.316;0.092;2023-02-02T05:27:12;13.07;48.79
76785;SHT30;66893;44.316;0.092;2023-02-02T05:29:38;13.06;48.89
76785;SHT30;66893;44.316;0.092;2023-02-02T05:32:03;13.06;48.84
76785;SHT30;66893;44.316;0.092;2023-02-02T05:34:29;13.08;48.84
76785;SHT30;66893;44.316;0.092;2023-02-02T05:36:54;13.07;48.84
76785;SHT30;66893;44.316;0.092;2023-02-02T05:39:20;13.06;48.88
76785;SHT30;66893;44.316;0.092;2023-02-02T05:41:45;13.03;48.90
76785;SHT30;66893;44.316;0.092;2023-02-02T05:44:12;13.06;48.90
76785;SHT30;66893;44.316;0.092;2023-02-02T05:46:38;13.06;48.91
76785;SHT30;66893;44.316;0.092;2023-02-02T05:49:04;13.03;48.94
76785;SHT30;66893;44.316;0.092;2023-02-02T05:51:43;13.04;48.88
76785;SHT30;66893;44.316;0.092;2023-02-02T05:54:10;13.03;48.91
76785;SHT30;66893;44.316;0.092;2023-02-02T05:56:36;13.03;48.94
76785;SHT30;66893;44.316;0.092;2023-02-02T05:59:02;13.03;48.91
76785;SHT30;66893;44.316;0.092;2023-02-02T06:01:31;13.00;48.95
76785;SHT30;66893;44.316;0.092;2023-02-02T06:03:57;13.01;48.97
76785;SHT30;66893;44.316;0.092;2023-02-02T06:06:23;12.99;48.94
76785;SHT30;66893;44.316;0.092;2023-02-02T06:08:48;13.00;49.01
76785;SHT30;66893;44.316;0.092;2023-02-02T06:11:16;13.00;48.98
76785;SHT30;66893;44.316;0.092;2023-02-02T06:13:42;12.97;49.02
76785;SHT30;66893;44.316;0.092;2023-02-02T06:16:08;13.01;49.00
76785;SHT30;66893;44.316;0.092;2023-02-02T06:18:34;12.97;49.02
76785;SHT30;66893;44.316;0.092;2023-02-02T06:21:02;13.01;49.00
76785;SHT30;66893;44.316;0.092;2023-02-02T06:23:28;12.97;49.00
76785;SHT30;66893;44.316;0.092;2023-02-02T06:25:54;12.99;49.02
76785;SHT30;66893;44.316;0.092;2023-02-02T06:28:19;12.99;49.00
76785;SHT30;66893;44.316;0.092;2023-02-02T06:30:45;12.96;49.04
76785;SHT30;66893;44.316;0.092;2023-02-02T06:33:10;12.97;49.08
76785;SHT30;66893;44.316;0.092;2023-02-02T06:35:36;12.99;49.06
76785;SHT30;66893;44.316;0.092;2023-02-02T06:38:02;12.96;49.08
76785;SHT30;66893;44.316;0.092;2023-02-02T06:40:27;12.99;49.10
76785;SHT30;66893;44.316;0.092;2023-02-02T06:43:00;12.97;49.13
76785;SHT30;66893;44.316;0.092;2023-02-02T06:45:28;12.96;49.15
76785;SHT30;66893;44.316;0.092;2023-02-02T06:47:57;12.94;49.14
76785;SHT30;66893;44.316;0.092;2023-02-02T06:50:25;12.91;49.18
76785;SHT30;66893;44.316;0.092;2023-02-02T06:52:51;12.93;49.17
76785;SHT30;66893;44.316;0.092;2023-02-02T06:55:18;12.94;49.21
76785;SHT30;66893;44.316;0.092;2023-02-02T06:57:44;12.91;49.19
76785;SHT30;66893;44.316;0.092;2023-02-02T07:00:11;12.91;49.25
76785;SHT30;66893;44.316;0.092;2023-02-02T07:02:36;12.93;49.27
76785;SHT30;66893;44.316;0.092;2023-02-02T07:05:02;12.93;49.23
76785;SHT30;66893;44.316;0.092;2023-02-02T07:07:32;12.93;49.26
76785;SHT30;66893;44.316;0.092;2023-02-02T07:09:58;12.96;49.26
76785;SHT30;66893;44.316;0.092;2023-02-02T07:12:23;12.96;49.27
76785;SHT30;66893;44.316;0.092;2023-02-02T07:14:49;12.96;49.31
76785;SHT30;66893;44.316;0.092;2023-02-02T07:17:15;12.94;49.29
76785;SHT30;66893;44.316;0.092;2023-02-02T07:19:40;12.96;49.31
76785;SHT30;66893;44.316;0.092;2023-02-02T07:22:06;12.97;49.33
76785;SHT30;66893;44.316;0.092;2023-02-02T07:24:31;12.96;49.32
76785;SHT30;66893;44.316;0.092;2023-02-02T07:26:57;12.96;49.37
76785;SHT30;66893;44.316;0.092;2023-02-02T07:29:23;12.96;49.36
76785;SHT30;66893;44.316;0.092;2023-02-02T07:31:48;12.97;49.34
76785;SHT30;66893;44.316;0.092;2023-02-02T07:34:13;12.94;49.40
76785;SHT30;66893;44.316;0.092;2023-02-02T07:36:39;12.97;49.39
76785;SHT30;66893;44.316;0.092;2023-02-02T07:39:05;12.97;49.44
76785;SHT30;66893;44.316;0.092;2023-02-02T07:41:33;12.96;49.44
76785;SHT30;66893;44.316;0.092;2023-02-02T07:43:59;12.96;49.42
76785;SHT30;66893;44.316;0.092;2023-02-02T07:46:25;12.97;49.45
76785;SHT30;66893;44.316;0.092;2023-02-02T07:48:53;12.99;49.46
76785;SHT30;66893;44.316;0.092;2023-02-02T07:51:19;12.96;49.43
76785;SHT30;66893;44.316;0.092;2023-02-02T07:53:48;12.99;49.37
76785;SHT30;66893;44.316;0.092;2023-02-02T07:56:25;12.96;49.47
76785;SHT30;66893;44.316;0.092;2023-02-02T07:58:55;12.96;49.55
76785;SHT30;66893;44.316;0.092;2023-02-02T08:01:22;12.94;49.52
76785;SHT30;66893;44.316;0.092;2023-02-02T08:03:50;12.94;49.56
76785;SHT30;66893;44.316;0.092;2023-02-02T08:06:23;12.96;49.56
76785;SHT30;66893;44.316;0.092;2023-02-02T08:08:50;12.99;49.60
76785;SHT30;66893;44.316;0.092;2023-02-02T08:11:17;13.00;49.64
76785;SHT30;66893;44.316;0.092;2023-02-02T08:13:43;13.00;49.64
76785;SHT30;66893;44.316;0.092;2023-02-02T08:16:12;13.01;49.71
76785;SHT30;66893;44.316;0.092;2023-02-02T08:18:37;13.01;49.66
76785;SHT30;66893;44.316;0.092;2023-02-02T08:21:04;13.03;49.72
76785;SHT30;66893;44.316;0.092;2023-02-02T08:23:30;13.04;49.74
76785;SHT30;66893;44.316;0.092;2023-02-02T08:26:16;13.06;49.74
76785;SHT30;66893;44.316;0.092;2023-02-02T08:28:45;13.11;49.73
76785;SHT30;66893;44.316;0.092;2023-02-02T08:31:17;13.10;49.73
76785;SHT30;66893;44.316;0.092;2023-02-02T08:33:43;13.10;49.71
76785;SHT30;66893;44.316;0.092;2023-02-02T08:36:13;13.14;49.78
76785;SHT30;66893;44.316;0.092;2023-02-02T08:38:40;13.15;49.72
76785;SHT30;66893;44.316;0.092;2023-02-02T08:41:07;13.17;49.73
76785;SHT30;66893;44.316;0.092;2023-02-02T08:43:34;13.18;49.77
76785;SHT30;66893;44.316;0.092;2023-02-02T08:45:59;13.18;49.80
76785;SHT30;66893;44.316;0.092;2023-02-02T08:48:25;13.18;49.77
76785;SHT30;66893;44.316;0.092;2023-02-02T08:50:55;13.21;49.82
76785;SHT30;66893;44.316;0.092;2023-02-02T08:53:22;13.25;49.80
76785;SHT30;66893;44.316;0.092;2023-02-02T08:55:48;13.25;49.79
76785;SHT30;66893;44.316;0.092;2023-02-02T08:58:13;13.27;49.77
76785;SHT30;66893;44.316;0.092;2023-02-02T09:00:39;13.28;49.87
76785;SHT30;66893;44.316;0.092;2023-02-02T09:03:05;13.32;49.89
76785;SHT30;66893;44.316;0.092;2023-02-02T09:05:31;13.34;49.88
76785;SHT30;66893;44.316;0.092;2023-02-02T09:07:57;13.37;49.81
76785;SHT30;66893;44.316;0.092;2023-02-02T09:10:22;13.28;49.97
76785;SHT30;66893;44.316;0.092;2023-02-02T09:12:48;13.17;50.16
76785;SHT30;66893;44.316;0.092;2023-02-02T09:15:13;13.06;50.37
76785;SHT30;66893;44.316;0.092;2023-02-02T09:17:39;12.97;50.66
76785;SHT30;66893;44.316;0.092;2023-02-02T09:20:05;12.96;50.77
76785;SHT30;66893;44.316;0.092;2023-02-02T09:22:31;13.01;50.81
76785;SHT30;66893;44.316;0.092;2023-02-02T09:24:57;13.07;50.84
76785;SHT30;66893;44.316;0.092;2023-02-02T09:27:22;13.11;50.83
76785;SHT30;66893;44.316;0.092;2023-02-02T09:29:48;13.19;50.82
76785;SHT30;66893;44.316;0.092;2023-02-02T09:32:13;13.25;50.79
76785;SHT30;66893;44.316;0.092;2023-02-02T09:34:39;13.31;50.84
76785;SHT30;66893;44.316;0.092;2023-02-02T09:37:04;13.32;50.84
76785;SHT30;66893;44.316;0.092;2023-02-02T09:39:30;13.38;50.81
76785;SHT30;66893;44.316;0.092;2023-02-02T09:52:37;13.62;50.78
76785;SHT30;66893;44.316;0.092;2023-02-02T09:55:40;13.66;50.70
76785;SHT30;66893;44.316;0.092;2023-02-02T09:58:31;13.69;50.77
76785;SHT30;66893;44.316;0.092;2023-02-02T10:01:26;13.76;50.76
76785;SHT30;66893;44.316;0.092;2023-02-02T10:04:02;13.79;50.74
76785;SHT30;66893;44.316;0.092;2023-02-02T10:06:39;13.83;50.74
76785;SHT30;66893;44.316;0.092;2023-02-02T10:18:26;14.01;50.65
76785;SHT30;66893;44.316;0.092;2023-02-02T10:21:01;14.04;50.62
76785;SHT30;66893;44.316;0.092;2023-02-02T10:23:37;14.11;50.63
76785;SHT30;66893;44.316;0.092;2023-02-02T10:26:19;14.11;50.56
76785;SHT30;66893;44.316;0.092;2023-02-02T10:34:41;14.25;50.55
76785;SHT30;66893;44.316;0.092;2023-02-02T10:43:06;14.41;50.47
76785;SHT30;66893;44.316;0.092;2023-02-02T10:45:59;14.49;50.44
76785;SHT30;66893;44.316;0.092;2023-02-02T10:48:30;14.56;49.95
76785;SHT30;66893;44.316;0.092;2023-02-02T10:51:09;14.58;49.42
76785;SHT30;66893;44.316;0.092;2023-02-02T10:53:36;14.64;49.20
76785;SHT30;66893;44.316;0.092;2023-02-02T10:56:03;14.65;48.79
76785;SHT30;66893;44.316;0.092;2023-02-02T11:01:23;14.68;48.19
76785;SHT30;66893;44.316;0.092;2023-02-02T11:03:48;14.68;47.97
76785;SHT30;66893;44.316;0.092;2023-02-02T11:06:35;14.69;47.97
76785;SHT30;66893;44.316;0.092;2023-02-02T11:09:25;14.73;47.92
76785;SHT30;66893;44.316;0.092;2023-02-02T11:12:24;14.77;47.65
76785;SHT30;66893;44.316;0.092;2023-02-02T11:15:03;14.75;47.39
76785;SHT30;66893;44.316;0.092;2023-02-02T11:17:30;14.79;47.29
76785;SHT30;66893;44.316;0.092;2023-02-02T11:19:56;14.83;47.26
76785;SHT30;66893;44.316;0.092;2023-02-02T11:22:36;14.87;47.23
76785;SHT30;66893;44.316;0.092;2023-02-02T11:25:26;14.93;47.01
76785;SHT30;66893;44.316;0.092;2023-02-02T11:27:52;14.94;47.03
76785;SHT30;66893;44.316;0.092;2023-02-02T11:30:27;15.00;46.82
76785;SHT30;66893;44.316;0.092;2023-02-02T11:32:54;15.06;46.60
76785;SHT30;66893;44.316;0.092;2023-02-02T11:35:27;15.10;46.41
76785;SHT30;66893;44.316;0.092;2023-02-02T11:40:35;15.24;46.15
76785;SHT30;66893;44.316;0.092;2023-02-02T11:45:43;15.28;45.96
76785;SHT30;66893;44.316;0.092;2023-02-02T11:50:49;15.47;45.97
76785;SHT30;66893;44.316;0.092;2023-02-02T11:53:45;15.52;45.77
76785;SHT30;66893;44.316;0.092;2023-02-02T11:56:20;15.59;45.64
76785;SHT30;66893;44.316;0.092;2023-02-02T11:59:02;15.63;45.26
76785;SHT30;66893;44.316;0.092;2023-02-02T12:01:36;15.73;45.39
76785;SHT30;66893;44.316;0.092;2023-02-02T12:04:25;15.82;45.15
76785;SHT30;66893;44.316;0.092;2023-02-02T12:06:51;15.92;45.02
76785;SHT30;66893;44.316;0.092;2023-02-02T12:09:22;15.99;44.86
76785;SHT30;66893;44.316;0.092;2023-02-02T12:14:33;16.13;44.83
76785;SHT30;66893;44.316;0.092;2023-02-02T12:20:17;16.30;44.34
76785;SHT30;66893;44.316;0.092;2023-02-02T12:22:49;16.35;44.85
76785;SHT30;66893;44.316;0.092;2023-02-02T12:39:31;16.75;45.41
76785;SHT30;66893;44.316;0.092;2023-02-02T12:48:07;16.93;45.44
76785;SHT30;66893;44.316;0.092;2023-02-02T12:53:46;17.07;45.37
76785;SHT30;66893;44.316;0.092;2023-02-02T12:56:21;17.14;45.34
76785;SHT30;66893;44.316;0.092;2023-02-02T12:59:13;17.21;45.33
76785;SHT30;66893;44.316;0.092;2023-02-02T13:01:52;17.27;45.23
76785;SHT30;66893;44.316;0.092;2023-02-02T13:12:28;17.40;45.20
76785;SHT30;66893;44.316;0.092;2023-02-02T13:15:03;17.47;45.13
76785;SHT30;66893;44.316;0.092;2023-02-02T13:17:41;17.52;45.11
76785;SHT30;66893;44.316;0.092;2023-02-02T13:20:19;17.59;45.07
76785;SHT30;66893;44.316;0.092;2023-02-02T13:22:50;17.67;44.96
76785;SHT30;66893;44.316;0.092;2023-02-02T13:25:23;17.72;44.95
76785;SHT30;66893;44.316;0.092;2023-02-02T13:27:50;17.79;44.85
76785;SHT30;66893;44.316;0.092;2023-02-02T13:30:37;17.87;44.84
76785;SHT30;66893;44.316;0.092;2023-02-02T13:33:45;17.95;44.83
76785;SHT30;66893;44.316;0.092;2023-02-02T13:36:19;18.06;44.72
76785;SHT30;66893;44.316;0.092;2023-02-02T13:38:53;18.16;44.62
76785;SHT30;66893;44.316;0.092;2023-02-02T13:41:20;18.24;44.53
76785;SHT30;66893;44.316;0.092;2023-02-02T13:43:56;18.34;44.47
76785;SHT30;66893;44.316;0.092;2023-02-02T13:49:35;19.65;44.14
76785;SHT30;66893;44.316;0.092;2023-02-02T13:52:28;21.10;42.19
76785;SHT30;66893;44.316;0.092;2023-02-02T13:55:48;22.63;40.36
76785;SHT30;66893;44.316;0.092;2023-02-02T14:00:52;25.18;37.38
76785;SHT30;66893;44.316;0.092;2023-02-02T14:06:07;26.86;35.29
76785;SHT30;66893;44.316;0.092;2023-02-02T14:08:34;27.58;34.49
76785;SHT30;66893;44.316;0.092;2023-02-02T14:11:02;28.10;33.82
76785;SHT30;66893;44.316;0.092;2023-02-02T14:13:44;28.11;33.59
76785;SHT30;66893;44.316;0.092;2023-02-02T14:18:59;27.73;33.34
76785;SHT30;66893;44.316;0.092;2023-02-02T14:23:57;27.20;33.31
76785;SHT30;66893;44.316;0.092;2023-02-02T14:26:49;26.39;33.61
76785;SHT30;66893;44.316;0.092;2023-02-02T14:31:56;24.84;34.33
76785;SHT30;66893;44.316;0.092;2023-02-02T14:34:35;24.11;34.79
76785;SHT30;66893;44.316;0.092;2023-02-02T14:45:47;21.78;36.46
76785;SHT30;66893;44.316;0.092;2023-02-02T14:48:18;21.42;36.83
76785;SHT30;66893;44.316;0.092;2023-02-02T14:55:53;20.48;37.70
76785;SHT30;66893;44.316;0.092;2023-02-02T14:58:56;20.17;37.99
76785;SHT30;66893;44.316;0.092;2023-02-02T15:01:27;19.93;38.30
76785;SHT30;66893;44.316;0.092;2023-02-02T15:06:33;19.50;38.81
76785;SHT30;66893;44.316;0.092;2023-02-02T15:14:52;19.00;39.54
76785;SHT30;66893;44.316;0.092;2023-02-02T15:23:05;18.57;40.08
76785;SHT30;66893;44.316;0.092;2023-02-02T15:26:03;18.47;40.26
76785;SHT30;66893;44.316;0.092;2023-02-02T15:33:48;18.18;40.74
76785;SHT30;66893;44.316;0.092;2023-02-02T15:38:50;18.03;41.03
76785;SHT30;66893;44.316;0.092;2023-02-02T15:41:29;17.96;41.16
76785;SHT30;66893;44.316;0.092;2023-02-02T15:43:57;17.95;41.29
76785;SHT30;66893;44.316;0.092;2023-02-02T15:46:26;17.83;41.41
76785;SHT30;66893;44.316;0.092;2023-02-02T15:49:21;17.81;41.52
76785;SHT30;66893;44.316;0.092;2023-02-02T15:51:51;17.75;41.62
76785;SHT30;66893;44.316;0.092;2023-02-02T15:54:29;17.72;41.74
76785;SHT30;66893;44.316;0.092;2023-02-02T15:56:57;17.65;41.84
76785;SHT30;66893;44.316;0.092;2023-02-02T15:59:38;17.59;41.97
76785;SHT30;66893;44.316;0.092;2023-02-02T16:04:36;17.51;42.17
76785;SHT30;66893;44.316;0.092;2023-02-02T16:07:11;17.48;42.29
76785;SHT30;66893;44.316;0.092;2023-02-02T16:09:37;17.42;42.41
76785;SHT30;66893;44.316;0.092;2023-02-02T16:12:16;17.41;42.48
76785;SHT30;66893;44.316;0.092;2023-02-02T16:14:51;17.40;42.56
76785;SHT30;66893;44.316;0.092;2023-02-02T16:17:20;17.35;42.60
76785;SHT30;66893;44.316;0.092;2023-02-02T16:19:48;17.34;42.73
76785;SHT30;66893;44.316;0.092;2023-02-02T16:22:20;17.28;42.52
76785;SHT30;66893;44.316;0.092;2023-02-02T16:24:51;17.24;42.82
76785;SHT30;66893;44.316;0.092;2023-02-02T16:27:20;17.21;42.90
76785;SHT30;66893;44.316;0.092;2023-02-02T16:29:48;17.16;42.98
76785;SHT30;66893;44.316;0.092;2023-02-02T16:32:31;17.14;43.03
76785;SHT30;66893;44.316;0.092;2023-02-02T16:34:58;17.12;43.15
76785;SHT30;66893;44.316;0.092;2023-02-02T16:37:27;17.12;43.20
76785;SHT30;66893;44.316;0.092;2023-02-02T16:39:54;17.06;43.28
76785;SHT30;66893;44.316;0.092;2023-02-02T16:42:24;17.03;43.36
76785;SHT30;66893;44.316;0.092;2023-02-02T16:44:50;16.99;43.45
76785;SHT30;66893;44.316;0.092;2023-02-02T16:49:51;16.96;43.60
76785;SHT30;66893;44.316;0.092;2023-02-02T16:52:18;16.92;43.66
76785;SHT30;66893;44.316;0.092;2023-02-02T16:54:53;16.89;43.68
76785;SHT30;66893;44.316;0.092;2023-02-02T16:57:28;16.85;43.77
76785;SHT30;66893;44.316;0.092;2023-02-02T16:59:57;16.82;43.86
76785;SHT30;66893;44.316;0.092;2023-02-02T17:02:37;16.77;43.93
76785;SHT30;66893;44.316;0.092;2023-02-02T17:05:21;16.75;44.03
76785;SHT30;66893;44.316;0.092;2023-02-02T17:07:58;16.72;44.04
76785;SHT30;66893;44.316;0.092;2023-02-02T17:10:32;16.65;44.16
76785;SHT30;66893;44.316;0.092;2023-02-02T17:12:59;16.61;44.25
76785;SHT30;66893;44.316;0.092;2023-02-02T17:15:28;16.59;44.30
76785;SHT30;66893;44.316;0.092;2023-02-02T17:17:54;16.57;44.37
76785;SHT30;66893;44.316;0.092;2023-02-02T17:20:20;16.49;44.47
76785;SHT30;66893;44.316;0.092;2023-02-02T17:22:49;16.47;44.50
76785;SHT30;66893;44.316;0.092;2023-02-02T17:25:29;16.44;44.58
76785;SHT30;66893;44.316;0.092;2023-02-02T17:27:57;16.42;44.64
76785;SHT30;66893;44.316;0.092;2023-02-02T17:30:23;16.38;44.70
76785;SHT30;66893;44.316;0.092;2023-02-02T17:32:48;16.35;44.69
76785;SHT30;66893;44.316;0.092;2023-02-02T17:35:19;16.28;44.46
76785;SHT30;66893;44.316;0.092;2023-02-02T17:37:46;16.13;44.16
76785;SHT30;66893;44.316;0.092;2023-02-02T17:40:16;16.02;44.38
76785;SHT30;66893;44.316;0.092;2023-02-02T17:42:43;15.93;44.58
76785;SHT30;66893;44.316;0.092;2023-02-02T17:47:40;15.92;44.84
76785;SHT30;66893;44.316;0.092;2023-02-02T17:50:06;15.92;44.91
76785;SHT30;66893;44.316;0.092;2023-02-02T17:52:31;15.90;44.93
76785;SHT30;66893;44.316;0.092;2023-02-02T17:54:57;15.90;45.01
76785;SHT30;66893;44.316;0.092;2023-02-02T17:57:22;15.92;45.11
76785;SHT30;66893;44.316;0.092;2023-02-02T17:59:48;15.87;45.14
76785;SHT30;66893;44.316;0.092;2023-02-02T18:02:14;15.86;45.20
76785;SHT30;66893;44.316;0.092;2023-02-02T18:04:40;15.85;45.19
76785;SHT30;66893;44.316;0.092;2023-02-02T18:07:07;15.82;45.28
76785;SHT30;66893;44.316;0.092;2023-02-02T18:09:33;15.79;45.33
76785;SHT30;66893;44.316;0.092;2023-02-02T18:11:59;15.76;45.39
76785;SHT30;66893;44.316;0.092;2023-02-02T18:14:26;15.76;45.48
76785;SHT30;66893;44.316;0.092;2023-02-02T18:16:51;15.76;45.42
76785;SHT30;66893;44.316;0.092;2023-02-02T18:19:17;15.72;45.45
76785;SHT30;66893;44.316;0.092;2023-02-02T18:21:42;15.72;45.48
76785;SHT30;66893;44.316;0.092;2023-02-02T18:24:12;15.73;45.44
76785;SHT30;66893;44.316;0.092;2023-02-02T18:26:39;15.76;45.40
76785;SHT30;66893;44.316;0.092;2023-02-02T18:29:05;15.79;45.40
76785;SHT30;66893;44.316;0.092;2023-02-02T18:31:30;15.79;45.37
76785;SHT30;66893;44.316;0.092;2023-02-02T18:33:56;15.81;45.31